sensor_id;sensor_type;location;lat;lon;timestamp;P1;durP1;ratioP1;P2;durP2;ratioP2
71610;SDS011;59459;51.172;6.682;2023-01-19T00:00:55;19.60;;;8.43;;
71610;SDS011;59459;51.172;6.682;2023-01-19T00:03:20;19.40;;;8.30;;
71610;SDS011;59459;51.172;6.682;2023-01-19T00:05:46;20.97;;;9.37;;
71610;SDS011;59459;51.172;6.682;2023-01-19T00:08:11;17.47;;;7.70;;
71610;SDS011;59459;51.172;6.682;2023-01-19T00:10:40;18.02;;;8.45;;
71610;SDS011;59459;51.172;6.682;2023-01-19T00:13:06;19.03;;;7.57;;
71610;SDS011;59459;51.172;6.682;2023-01-19T00:15:31;24.17;;;9.07;;
71610;SDS011;59459;51.172;6.682;2023-01-19T00:17:56;15.93;;;7.77;;
71610;SDS011;59459;51.172;6.682;2023-01-19T00:20:21;18.07;;;7.97;;
71610;SDS011;59459;51.172;6.682;2023-01-19T00:22:46;18.50;;;7.80;;
71610;SDS011;59459;51.172;6.682;2023-01-19T00:25:14;15.95;;;7.50;;
71610;SDS011;59459;51.172;6.682;2023-01-19T00:27:40;15.87;;;8.10;;
71610;SDS011;59459;51.172;6.682;2023-01-19T00:30:05;18.70;;;8.47;;
71610;SDS011;59459;51.172;6.682;2023-01-19T00:32:30;17.10;;;7.85;;
71610;SDS011;59459;51.172;6.682;2023-01-19T00:34:56;16.60;;;6.90;;
71610;SDS011;59459;51.172;6.682;2023-01-19T00:37:21;18.40;;;8.00;;
71610;SDS011;59459;51.172;6.682;2023-01-19T00:39:46;14.30;;;7.23;;
71610;SDS011;59459;51.172;6.682;2023-01-19T00:42:11;17.77;;;8.27;;
71610;SDS011;59459;51.172;6.682;2023-01-19T00:44:56;17.08;;;7.88;;
71610;SDS011;59459;51.172;6.682;2023-01-19T00:47:21;15.10;;;6.67;;
71610;SDS011;59459;51.172;6.682;2023-01-19T00:49:46;19.60;;;7.70;;
71610;SDS011;59459;51.172;6.682;2023-01-19T00:52:11;15.27;;;7.47;;
71610;SDS011;59459;51.172;6.682;2023-01-19T00:54:36;19.03;;;8.07;;
71610;SDS011;59459;51.172;6.682;2023-01-19T00:57:02;18.47;;;8.47;;
71610;SDS011;59459;51.172;6.682;2023-01-19T00:59:27;16.03;;;7.67;;
71610;SDS011;59459;51.172;6.682;2023-01-19T01:01:52;20.27;;;8.43;;
71610;SDS011;59459;51.172;6.682;2023-01-19T01:04:17;19.37;;;8.47;;
71610;SDS011;59459;51.172;6.682;2023-01-19T01:06:43;17.93;;;8.03;;
71610;SDS011;59459;51.172;6.682;2023-01-19T01:09:08;17.07;;;7.93;;
71610;SDS011;59459;51.172;6.682;2023-01-19T01:11:36;16.95;;;8.10;;
71610;SDS011;59459;51.172;6.682;2023-01-19T01:14:02;19.63;;;8.18;;
71610;SDS011;59459;51.172;6.682;2023-01-19T01:16:27;18.27;;;8.77;;
71610;SDS011;59459;51.172;6.682;2023-01-19T01:18:52;20.77;;;7.93;;
71610;SDS011;59459;51.172;6.682;2023-01-19T01:21:17;18.07;;;7.87;;
71610;SDS011;59459;51.172;6.682;2023-01-19T01:23:42;20.97;;;7.63;;
71610;SDS011;59459;51.172;6.682;2023-01-19T01:26:08;20.20;;;8.20;;
71610;SDS011;59459;51.172;6.682;2023-01-19T01:28:33;17.47;;;7.73;;
71610;SDS011;59459;51.172;6.682;2023-01-19T01:30:58;22.23;;;8.27;;
71610;SDS011;59459;51.172;6.682;2023-01-19T01:33:23;20.77;;;8.13;;
71610;SDS011;59459;51.172;6.682;2023-01-19T01:35:49;18.60;;;8.10;;
71610;SDS011;59459;51.172;6.682;2023-01-19T01:38:15;17.27;;;8.07;;
71610;SDS011;59459;51.172;6.682;2023-01-19T01:40:41;19.00;;;7.70;;
71610;SDS011;59459;51.172;6.682;2023-01-19T01:43:10;20.77;;;7.63;;
71610;SDS011;59459;51.172;6.682;2023-01-19T01:45:36;19.23;;;7.53;;
71610;SDS011;59459;51.172;6.682;2023-01-19T01:48:11;18.08;;;7.05;;
71610;SDS011;59459;51.172;6.682;2023-01-19T01:50:41;14.67;;;7.43;;
71610;SDS011;59459;51.172;6.682;2023-01-19T01:53:27;17.30;;;7.03;;
71610;SDS011;59459;51.172;6.682;2023-01-19T01:55:53;21.73;;;7.75;;
71610;SDS011;59459;51.172;6.682;2023-01-19T01:58:19;16.67;;;7.67;;
71610;SDS011;59459;51.172;6.682;2023-01-19T02:00:45;17.52;;;8.13;;
71610;SDS011;59459;51.172;6.682;2023-01-19T02:03:29;21.33;;;7.47;;
71610;SDS011;59459;51.172;6.682;2023-01-19T02:05:56;17.63;;;7.35;;
71610;SDS011;59459;51.172;6.682;2023-01-19T02:11:25;18.50;;;7.90;;
71610;SDS011;59459;51.172;6.682;2023-01-19T02:14:10;20.85;;;8.23;;
71610;SDS011;59459;51.172;6.682;2023-01-19T02:16:36;18.07;;;7.43;;
71610;SDS011;59459;51.172;6.682;2023-01-19T02:19:01;17.63;;;7.83;;
71610;SDS011;59459;51.172;6.682;2023-01-19T02:26:36;14.47;;;6.33;;
71610;SDS011;59459;51.172;6.682;2023-01-19T02:29:12;18.00;;;7.13;;
71610;SDS011;59459;51.172;6.682;2023-01-19T02:31:39;19.20;;;7.20;;
71610;SDS011;59459;51.172;6.682;2023-01-19T02:34:05;18.33;;;8.03;;
71610;SDS011;59459;51.172;6.682;2023-01-19T02:39:16;16.13;;;6.65;;
71610;SDS011;59459;51.172;6.682;2023-01-19T02:41:45;15.20;;;6.53;;
71610;SDS011;59459;51.172;6.682;2023-01-19T02:44:11;14.65;;;6.82;;
71610;SDS011;59459;51.172;6.682;2023-01-19T02:46:36;18.43;;;6.50;;
71610;SDS011;59459;51.172;6.682;2023-01-19T02:49:02;19.65;;;7.18;;
71610;SDS011;59459;51.172;6.682;2023-01-19T02:51:27;16.60;;;6.73;;
71610;SDS011;59459;51.172;6.682;2023-01-19T02:58:53;17.55;;;6.78;;
71610;SDS011;59459;51.172;6.682;2023-01-19T03:09:32;15.77;;;6.60;;
71610;SDS011;59459;51.172;6.682;2023-01-19T03:12:00;16.08;;;6.45;;
71610;SDS011;59459;51.172;6.682;2023-01-19T03:14:28;14.57;;;6.03;;
71610;SDS011;59459;51.172;6.682;2023-01-19T03:16:55;15.57;;;6.05;;
71610;SDS011;59459;51.172;6.682;2023-01-19T03:19:26;18.63;;;6.50;;
71610;SDS011;59459;51.172;6.682;2023-01-19T03:22:01;15.20;;;6.28;;
71610;SDS011;59459;51.172;6.682;2023-01-19T03:24:28;15.65;;;7.05;;
71610;SDS011;59459;51.172;6.682;2023-01-19T03:26:58;15.02;;;5.00;;
71610;SDS011;59459;51.172;6.682;2023-01-19T03:29:29;16.98;;;6.50;;
71610;SDS011;59459;51.172;6.682;2023-01-19T03:31:55;14.80;;;5.73;;
71610;SDS011;59459;51.172;6.682;2023-01-19T03:34:21;14.23;;;5.85;;
71610;SDS011;59459;51.172;6.682;2023-01-19T03:36:48;15.10;;;6.13;;
71610;SDS011;59459;51.172;6.682;2023-01-19T03:39:16;14.98;;;6.40;;
71610;SDS011;59459;51.172;6.682;2023-01-19T03:41:43;14.43;;;6.13;;
71610;SDS011;59459;51.172;6.682;2023-01-19T03:44:11;14.30;;;5.95;;
71610;SDS011;59459;51.172;6.682;2023-01-19T03:46:36;14.67;;;5.73;;
71610;SDS011;59459;51.172;6.682;2023-01-19T03:49:01;15.57;;;5.85;;
71610;SDS011;59459;51.172;6.682;2023-01-19T03:51:27;13.00;;;5.07;;
71610;SDS011;59459;51.172;6.682;2023-01-19T03:53:52;12.03;;;4.50;;
71610;SDS011;59459;51.172;6.682;2023-01-19T03:56:18;15.07;;;5.97;;
71610;SDS011;59459;51.172;6.682;2023-01-19T03:58:44;13.70;;;5.32;;
71610;SDS011;59459;51.172;6.682;2023-01-19T04:01:09;17.70;;;5.87;;
71610;SDS011;59459;51.172;6.682;2023-01-19T04:03:35;13.07;;;5.50;;
71610;SDS011;59459;51.172;6.682;2023-01-19T04:06:00;17.07;;;6.77;;
71610;SDS011;59459;51.172;6.682;2023-01-19T04:08:26;14.63;;;6.53;;
71610;SDS011;59459;51.172;6.682;2023-01-19T04:10:51;16.35;;;6.47;;
71610;SDS011;59459;51.172;6.682;2023-01-19T04:13:16;16.57;;;6.17;;
71610;SDS011;59459;51.172;6.682;2023-01-19T04:15:41;16.77;;;6.00;;
71610;SDS011;59459;51.172;6.682;2023-01-19T04:18:07;18.53;;;7.40;;
71610;SDS011;59459;51.172;6.682;2023-01-19T04:20:32;16.90;;;6.30;;
71610;SDS011;59459;51.172;6.682;2023-01-19T04:22:58;15.90;;;5.93;;
71610;SDS011;59459;51.172;6.682;2023-01-19T04:25:24;16.65;;;6.20;;
71610;SDS011;59459;51.172;6.682;2023-01-19T04:27:52;15.57;;;6.13;;
71610;SDS011;59459;51.172;6.682;2023-01-19T04:30:19;20.08;;;6.40;;
71610;SDS011;59459;51.172;6.682;2023-01-19T04:32:44;16.17;;;6.83;;
71610;SDS011;59459;51.172;6.682;2023-01-19T04:35:10;16.00;;;5.93;;
71610;SDS011;59459;51.172;6.682;2023-01-19T04:37:35;15.33;;;6.23;;
71610;SDS011;59459;51.172;6.682;2023-01-19T04:40:00;17.45;;;7.25;;
71610;SDS011;59459;51.172;6.682;2023-01-19T04:42:25;17.70;;;5.90;;
71610;SDS011;59459;51.172;6.682;2023-01-19T04:44:51;17.93;;;6.73;;
71610;SDS011;59459;51.172;6.682;2023-01-19T04:47:16;18.07;;;5.83;;
71610;SDS011;59459;51.172;6.682;2023-01-19T04:49:41;18.80;;;7.10;;
71610;SDS011;59459;51.172;6.682;2023-01-19T04:52:07;16.00;;;5.57;;
71610;SDS011;59459;51.172;6.682;2023-01-19T04:54:32;17.27;;;6.33;;
71610;SDS011;59459;51.172;6.682;2023-01-19T04:56:57;18.13;;;7.10;;
71610;SDS011;59459;51.172;6.682;2023-01-19T04:59:22;17.93;;;6.47;;
71610;SDS011;59459;51.172;6.682;2023-01-19T05:01:48;20.30;;;7.77;;
71610;SDS011;59459;51.172;6.682;2023-01-19T05:04:13;20.53;;;6.63;;
71610;SDS011;59459;51.172;6.682;2023-01-19T05:06:38;19.67;;;8.40;;
71610;SDS011;59459;51.172;6.682;2023-01-19T05:09:03;17.00;;;6.07;;
71610;SDS011;59459;51.172;6.682;2023-01-19T05:11:28;20.80;;;7.77;;
71610;SDS011;59459;51.172;6.682;2023-01-19T05:13:54;22.45;;;8.48;;
71610;SDS011;59459;51.172;6.682;2023-01-19T05:16:19;21.93;;;8.10;;
71610;SDS011;59459;51.172;6.682;2023-01-19T05:18:44;17.67;;;7.57;;
71610;SDS011;59459;51.172;6.682;2023-01-19T05:21:09;20.47;;;8.23;;
71610;SDS011;59459;51.172;6.682;2023-01-19T05:23:35;21.73;;;8.03;;
71610;SDS011;59459;51.172;6.682;2023-01-19T05:26:00;22.83;;;7.93;;
71610;SDS011;59459;51.172;6.682;2023-01-19T05:28:26;21.03;;;8.80;;
71610;SDS011;59459;51.172;6.682;2023-01-19T05:30:52;25.33;;;8.90;;
71610;SDS011;59459;51.172;6.682;2023-01-19T05:33:18;26.33;;;9.75;;
71610;SDS011;59459;51.172;6.682;2023-01-19T05:35:43;25.17;;;9.63;;
71610;SDS011;59459;51.172;6.682;2023-01-19T05:38:09;22.73;;;8.97;;
71610;SDS011;59459;51.172;6.682;2023-01-19T05:40:34;19.70;;;8.13;;
71610;SDS011;59459;51.172;6.682;2023-01-19T05:43:00;23.97;;;8.20;;
71610;SDS011;59459;51.172;6.682;2023-01-19T05:45:26;22.98;;;8.40;;
71610;SDS011;59459;51.172;6.682;2023-01-19T05:47:52;24.13;;;9.18;;
71610;SDS011;59459;51.172;6.682;2023-01-19T05:50:18;23.83;;;9.00;;
71610;SDS011;59459;51.172;6.682;2023-01-19T05:52:43;24.92;;;8.68;;
71610;SDS011;59459;51.172;6.682;2023-01-19T05:55:09;24.10;;;9.40;;
71610;SDS011;59459;51.172;6.682;2023-01-19T05:57:34;22.47;;;8.97;;
71610;SDS011;59459;51.172;6.682;2023-01-19T05:59:59;20.97;;;8.30;;
71610;SDS011;59459;51.172;6.682;2023-01-19T06:02:24;20.70;;;8.37;;
71610;SDS011;59459;51.172;6.682;2023-01-19T06:04:52;22.05;;;8.15;;
71610;SDS011;59459;51.172;6.682;2023-01-19T06:07:17;18.60;;;7.70;;
71610;SDS011;59459;51.172;6.682;2023-01-19T06:09:43;19.97;;;7.50;;
71610;SDS011;59459;51.172;6.682;2023-01-19T06:12:08;21.37;;;8.47;;
71610;SDS011;59459;51.172;6.682;2023-01-19T06:14:33;19.97;;;8.17;;
71610;SDS011;59459;51.172;6.682;2023-01-19T06:17:00;20.70;;;7.05;;
71610;SDS011;59459;51.172;6.682;2023-01-19T06:19:26;18.30;;;6.23;;
71610;SDS011;59459;51.172;6.682;2023-01-19T06:21:51;17.43;;;6.87;;
71610;SDS011;59459;51.172;6.682;2023-01-19T06:24:16;16.90;;;6.90;;
71610;SDS011;59459;51.172;6.682;2023-01-19T06:26:42;14.50;;;6.13;;
71610;SDS011;59459;51.172;6.682;2023-01-19T06:29:10;17.42;;;7.82;;
71610;SDS011;59459;51.172;6.682;2023-01-19T06:31:36;17.40;;;7.35;;
71610;SDS011;59459;51.172;6.682;2023-01-19T06:34:01;15.33;;;7.07;;
71610;SDS011;59459;51.172;6.682;2023-01-19T06:36:27;24.90;;;8.53;;
71610;SDS011;59459;51.172;6.682;2023-01-19T06:38:52;22.23;;;9.67;;
71610;SDS011;59459;51.172;6.682;2023-01-19T06:41:17;19.10;;;7.37;;
71610;SDS011;59459;51.172;6.682;2023-01-19T06:43:42;17.77;;;7.00;;
71610;SDS011;59459;51.172;6.682;2023-01-19T06:46:07;17.17;;;8.60;;
71610;SDS011;59459;51.172;6.682;2023-01-19T06:48:33;18.70;;;7.37;;
71610;SDS011;59459;51.172;6.682;2023-01-19T06:50:58;21.10;;;8.83;;
71610;SDS011;59459;51.172;6.682;2023-01-19T06:53:23;17.07;;;7.47;;
71610;SDS011;59459;51.172;6.682;2023-01-19T06:55:51;22.02;;;8.38;;
71610;SDS011;59459;51.172;6.682;2023-01-19T06:58:16;19.50;;;7.87;;
71610;SDS011;59459;51.172;6.682;2023-01-19T07:00:42;21.47;;;7.47;;
71610;SDS011;59459;51.172;6.682;2023-01-19T07:03:08;20.35;;;8.25;;
71610;SDS011;59459;51.172;6.682;2023-01-19T07:05:34;24.02;;;9.18;;
71610;SDS011;59459;51.172;6.682;2023-01-19T07:07:59;20.87;;;8.27;;
71610;SDS011;59459;51.172;6.682;2023-01-19T07:10:25;22.13;;;8.77;;
71610;SDS011;59459;51.172;6.682;2023-01-19T07:12:50;22.87;;;8.23;;
71610;SDS011;59459;51.172;6.682;2023-01-19T07:15:16;23.60;;;8.98;;
71610;SDS011;59459;51.172;6.682;2023-01-19T07:17:43;23.30;;;9.50;;
71610;SDS011;59459;51.172;6.682;2023-01-19T07:20:09;24.55;;;9.20;;
71610;SDS011;59459;51.172;6.682;2023-01-19T07:22:36;25.37;;;9.13;;
71610;SDS011;59459;51.172;6.682;2023-01-19T07:25:02;22.63;;;9.73;;
71610;SDS011;59459;51.172;6.682;2023-01-19T07:27:27;22.43;;;9.07;;
71610;SDS011;59459;51.172;6.682;2023-01-19T07:29:53;25.97;;;9.63;;
71610;SDS011;59459;51.172;6.682;2023-01-19T07:32:18;24.23;;;9.93;;
71610;SDS011;59459;51.172;6.682;2023-01-19T07:34:43;23.63;;;8.43;;
71610;SDS011;59459;51.172;6.682;2023-01-19T07:37:09;29.05;;;10.25;;
71610;SDS011;59459;51.172;6.682;2023-01-19T07:39:34;27.13;;;10.27;;
71610;SDS011;59459;51.172;6.682;2023-01-19T07:42:00;22.63;;;9.03;;
71610;SDS011;59459;51.172;6.682;2023-01-19T07:44:25;23.97;;;8.63;;
71610;SDS011;59459;51.172;6.682;2023-01-19T07:46:51;28.23;;;9.68;;
71610;SDS011;59459;51.172;6.682;2023-01-19T07:49:16;22.97;;;8.50;;
71610;SDS011;59459;51.172;6.682;2023-01-19T07:51:41;26.77;;;9.63;;
71610;SDS011;59459;51.172;6.682;2023-01-19T07:54:07;27.05;;;9.82;;
71610;SDS011;59459;51.172;6.682;2023-01-19T07:56:32;27.53;;;10.33;;
71610;SDS011;59459;51.172;6.682;2023-01-19T07:58:57;26.30;;;11.00;;
71610;SDS011;59459;51.172;6.682;2023-01-19T08:01:23;25.57;;;11.23;;
71610;SDS011;59459;51.172;6.682;2023-01-19T08:03:48;29.50;;;11.73;;
71610;SDS011;59459;51.172;6.682;2023-01-19T08:06:20;28.17;;;9.57;;
71610;SDS011;59459;51.172;6.682;2023-01-19T08:08:45;31.63;;;11.77;;
71610;SDS011;59459;51.172;6.682;2023-01-19T08:11:11;25.67;;;10.47;;
71610;SDS011;59459;51.172;6.682;2023-01-19T08:13:36;25.30;;;10.00;;
71610;SDS011;59459;51.172;6.682;2023-01-19T08:16:01;26.42;;;9.75;;
71610;SDS011;59459;51.172;6.682;2023-01-19T08:18:26;25.53;;;9.47;;
71610;SDS011;59459;51.172;6.682;2023-01-19T08:20:52;21.60;;;9.80;;
71610;SDS011;59459;51.172;6.682;2023-01-19T08:23:17;26.43;;;10.50;;
71610;SDS011;59459;51.172;6.682;2023-01-19T08:25:42;27.30;;;10.43;;
71610;SDS011;59459;51.172;6.682;2023-01-19T08:28:09;23.50;;;9.90;;
71610;SDS011;59459;51.172;6.682;2023-01-19T08:30:35;24.03;;;9.40;;
71610;SDS011;59459;51.172;6.682;2023-01-19T08:33:00;23.77;;;9.10;;
71610;SDS011;59459;51.172;6.682;2023-01-19T08:35:32;26.90;;;10.60;;
71610;SDS011;59459;51.172;6.682;2023-01-19T08:37:57;29.98;;;11.55;;
71610;SDS011;59459;51.172;6.682;2023-01-19T08:40:26;31.35;;;11.77;;
71610;SDS011;59459;51.172;6.682;2023-01-19T08:42:51;29.40;;;11.20;;
71610;SDS011;59459;51.172;6.682;2023-01-19T08:45:16;28.40;;;11.80;;
71610;SDS011;59459;51.172;6.682;2023-01-19T08:47:41;33.70;;;12.87;;
71610;SDS011;59459;51.172;6.682;2023-01-19T08:50:07;26.30;;;11.50;;
71610;SDS011;59459;51.172;6.682;2023-01-19T08:52:32;28.63;;;12.83;;
71610;SDS011;59459;51.172;6.682;2023-01-19T08:54:57;30.37;;;12.57;;
71610;SDS011;59459;51.172;6.682;2023-01-19T08:57:22;32.77;;;12.60;;
71610;SDS011;59459;51.172;6.682;2023-01-19T08:59:47;35.50;;;12.83;;
71610;SDS011;59459;51.172;6.682;2023-01-19T09:02:13;36.37;;;13.60;;
71610;SDS011;59459;51.172;6.682;2023-01-19T09:04:38;34.40;;;12.93;;
71610;SDS011;59459;51.172;6.682;2023-01-19T09:07:03;30.37;;;12.93;;
71610;SDS011;59459;51.172;6.682;2023-01-19T09:09:28;37.30;;;13.80;;
71610;SDS011;59459;51.172;6.682;2023-01-19T09:11:54;34.23;;;13.30;;
71610;SDS011;59459;51.172;6.682;2023-01-19T09:14:19;35.65;;;12.68;;
71610;SDS011;59459;51.172;6.682;2023-01-19T09:16:45;33.23;;;12.13;;
71610;SDS011;59459;51.172;6.682;2023-01-19T09:19:10;37.47;;;14.77;;
71610;SDS011;59459;51.172;6.682;2023-01-19T09:21:37;32.90;;;13.37;;
71610;SDS011;59459;51.172;6.682;2023-01-19T09:24:03;33.60;;;14.17;;
71610;SDS011;59459;51.172;6.682;2023-01-19T09:26:28;34.70;;;14.20;;
71610;SDS011;59459;51.172;6.682;2023-01-19T09:28:53;32.73;;;14.20;;
71610;SDS011;59459;51.172;6.682;2023-01-19T09:31:18;36.97;;;14.53;;
71610;SDS011;59459;51.172;6.682;2023-01-19T09:33:44;37.17;;;13.20;;
71610;SDS011;59459;51.172;6.682;2023-01-19T09:36:09;35.60;;;14.03;;
71610;SDS011;59459;51.172;6.682;2023-01-19T09:38:34;34.53;;;13.33;;
71610;SDS011;59459;51.172;6.682;2023-01-19T09:40:59;36.70;;;14.00;;
71610;SDS011;59459;51.172;6.682;2023-01-19T09:43:39;38.67;;;13.23;;
71610;SDS011;59459;51.172;6.682;2023-01-19T09:46:08;35.22;;;13.48;;
71610;SDS011;59459;51.172;6.682;2023-01-19T09:48:38;37.20;;;14.20;;
71610;SDS011;59459;51.172;6.682;2023-01-19T09:51:06;37.13;;;12.80;;
71610;SDS011;59459;51.172;6.682;2023-01-19T09:53:43;35.72;;;14.00;;
71610;SDS011;59459;51.172;6.682;2023-01-19T09:56:12;39.40;;;13.73;;
71610;SDS011;59459;51.172;6.682;2023-01-19T09:58:38;35.10;;;13.23;;
71610;SDS011;59459;51.172;6.682;2023-01-19T10:01:11;35.80;;;13.63;;
71610;SDS011;59459;51.172;6.682;2023-01-19T10:03:41;39.70;;;12.70;;
71610;SDS011;59459;51.172;6.682;2023-01-19T10:06:06;35.23;;;12.83;;
71610;SDS011;59459;51.172;6.682;2023-01-19T10:08:46;34.63;;;14.07;;
71610;SDS011;59459;51.172;6.682;2023-01-19T10:11:39;41.95;;;13.63;;
71610;SDS011;59459;51.172;6.682;2023-01-19T10:14:10;43.93;;;15.10;;
71610;SDS011;59459;51.172;6.682;2023-01-19T10:19:25;41.95;;;14.02;;
71610;SDS011;59459;51.172;6.682;2023-01-19T10:21:51;39.97;;;13.75;;
71610;SDS011;59459;51.172;6.682;2023-01-19T10:26:48;39.30;;;14.77;;
71610;SDS011;59459;51.172;6.682;2023-01-19T10:29:27;39.78;;;15.65;;
71610;SDS011;59459;51.172;6.682;2023-01-19T10:32:35;34.97;;;15.02;;
71610;SDS011;59459;51.172;6.682;2023-01-19T10:34:43;40.10;;;15.25;;
71610;SDS011;59459;51.172;6.682;2023-01-19T10:42:33;34.97;;;12.73;;
71610;SDS011;59459;51.172;6.682;2023-01-19T10:44:58;38.67;;;14.53;;
71610;SDS011;59459;51.172;6.682;2023-01-19T10:47:30;38.57;;;15.53;;
71610;SDS011;59459;51.172;6.682;2023-01-19T10:49:57;41.90;;;15.03;;
71610;SDS011;59459;51.172;6.682;2023-01-19T10:52:25;38.63;;;14.67;;
71610;SDS011;59459;51.172;6.682;2023-01-19T10:54:52;39.53;;;14.88;;
71610;SDS011;59459;51.172;6.682;2023-01-19T10:57:25;36.90;;;13.53;;
71610;SDS011;59459;51.172;6.682;2023-01-19T10:59:51;45.80;;;14.65;;
71610;SDS011;59459;51.172;6.682;2023-01-19T11:02:21;37.37;;;15.23;;
71610;SDS011;59459;51.172;6.682;2023-01-19T11:04:48;43.50;;;15.40;;
71610;SDS011;59459;51.172;6.682;2023-01-19T11:07:19;43.53;;;16.27;;
71610;SDS011;59459;51.172;6.682;2023-01-19T11:09:45;40.70;;;15.30;;
71610;SDS011;59459;51.172;6.682;2023-01-19T11:12:17;39.20;;;14.53;;
71610;SDS011;59459;51.172;6.682;2023-01-19T11:14:42;36.90;;;14.65;;
71610;SDS011;59459;51.172;6.682;2023-01-19T11:17:14;36.67;;;15.03;;
71610;SDS011;59459;51.172;6.682;2023-01-19T11:19:41;37.90;;;15.02;;
71610;SDS011;59459;51.172;6.682;2023-01-19T11:22:14;37.07;;;13.40;;
71610;SDS011;59459;51.172;6.682;2023-01-19T11:24:40;36.38;;;15.50;;
71610;SDS011;59459;51.172;6.682;2023-01-19T11:27:07;34.72;;;14.30;;
71610;SDS011;59459;51.172;6.682;2023-01-19T11:29:32;37.17;;;13.00;;
71610;SDS011;59459;51.172;6.682;2023-01-19T11:32:08;31.67;;;13.97;;
71610;SDS011;59459;51.172;6.682;2023-01-19T11:34:34;34.63;;;12.68;;
71610;SDS011;59459;51.172;6.682;2023-01-19T11:39:28;39.73;;;14.40;;
71610;SDS011;59459;51.172;6.682;2023-01-19T11:42:03;38.20;;;13.27;;
71610;SDS011;59459;51.172;6.682;2023-01-19T11:44:31;35.40;;;13.13;;
71610;SDS011;59459;51.172;6.682;2023-01-19T11:47:16;36.53;;;13.52;;
71610;SDS011;59459;51.172;6.682;2023-01-19T11:49:46;35.00;;;13.90;;
71610;SDS011;59459;51.172;6.682;2023-01-19T11:55:12;35.00;;;14.30;;
71610;SDS011;59459;51.172;6.682;2023-01-19T11:57:42;39.42;;;13.32;;
71610;SDS011;59459;51.172;6.682;2023-01-19T12:00:16;33.08;;;13.68;;
71610;SDS011;59459;51.172;6.682;2023-01-19T12:02:43;37.92;;;13.77;;
71610;SDS011;59459;51.172;6.682;2023-01-19T12:05:11;34.60;;;13.43;;
71610;SDS011;59459;51.172;6.682;2023-01-19T12:07:38;32.20;;;13.17;;
71610;SDS011;59459;51.172;6.682;2023-01-19T12:10:17;31.95;;;13.23;;
71610;SDS011;59459;51.172;6.682;2023-01-19T12:12:44;35.03;;;12.57;;
71610;SDS011;59459;51.172;6.682;2023-01-19T12:15:18;32.90;;;12.43;;
71610;SDS011;59459;51.172;6.682;2023-01-19T12:17:48;33.67;;;12.45;;
71610;SDS011;59459;51.172;6.682;2023-01-19T12:20:30;30.55;;;11.80;;
71610;SDS011;59459;51.172;6.682;2023-01-19T12:28:11;34.73;;;12.57;;
71610;SDS011;59459;51.172;6.682;2023-01-19T12:30:37;26.30;;;11.75;;
71610;SDS011;59459;51.172;6.682;2023-01-19T12:33:19;28.48;;;12.43;;
71610;SDS011;59459;51.172;6.682;2023-01-19T12:38:23;25.50;;;12.30;;
71610;SDS011;59459;51.172;6.682;2023-01-19T12:41:16;26.15;;;11.55;;
71610;SDS011;59459;51.172;6.682;2023-01-19T12:43:42;24.33;;;11.23;;
71610;SDS011;59459;51.172;6.682;2023-01-19T12:49:05;32.80;;;11.13;;
71610;SDS011;59459;51.172;6.682;2023-01-19T12:51:33;24.77;;;11.27;;
71610;SDS011;59459;51.172;6.682;2023-01-19T12:53:58;27.83;;;10.63;;
71610;SDS011;59459;51.172;6.682;2023-01-19T12:56:31;25.83;;;11.32;;
71610;SDS011;59459;51.172;6.682;2023-01-19T12:58:58;27.25;;;11.55;;
71610;SDS011;59459;51.172;6.682;2023-01-19T13:01:23;29.57;;;11.80;;
71610;SDS011;59459;51.172;6.682;2023-01-19T13:04:03;28.15;;;11.13;;
71610;SDS011;59459;51.172;6.682;2023-01-19T13:14:37;33.53;;;13.60;;
71610;SDS011;59459;51.172;6.682;2023-01-19T13:17:03;36.10;;;15.70;;
71610;SDS011;59459;51.172;6.682;2023-01-19T13:19:32;28.25;;;11.80;;
71610;SDS011;59459;51.172;6.682;2023-01-19T13:21:59;31.40;;;12.80;;
71610;SDS011;59459;51.172;6.682;2023-01-19T13:25:03;35.72;;;13.23;;
71610;SDS011;59459;51.172;6.682;2023-01-19T13:27:28;27.23;;;12.20;;
71610;SDS011;59459;51.172;6.682;2023-01-19T13:29:54;32.73;;;13.33;;
71610;SDS011;59459;51.172;6.682;2023-01-19T13:32:19;34.63;;;12.93;;
71610;SDS011;59459;51.172;6.682;2023-01-19T13:34:52;27.13;;;11.50;;
71610;SDS011;59459;51.172;6.682;2023-01-19T13:37:21;26.00;;;11.07;;
71610;SDS011;59459;51.172;6.682;2023-01-19T13:39:48;27.30;;;11.77;;
71610;SDS011;59459;51.172;6.682;2023-01-19T13:42:17;32.55;;;12.40;;
71610;SDS011;59459;51.172;6.682;2023-01-19T13:44:47;27.73;;;11.30;;
71610;SDS011;59459;51.172;6.682;2023-01-19T13:47:36;29.85;;;12.40;;
71610;SDS011;59459;51.172;6.682;2023-01-19T13:50:03;29.10;;;13.13;;
71610;SDS011;59459;51.172;6.682;2023-01-19T13:52:28;30.20;;;12.32;;
71610;SDS011;59459;51.172;6.682;2023-01-19T14:00:04;29.83;;;12.35;;
71610;SDS011;59459;51.172;6.682;2023-01-19T14:02:31;30.90;;;10.87;;
71610;SDS011;59459;51.172;6.682;2023-01-19T14:04:56;28.70;;;11.18;;
71610;SDS011;59459;51.172;6.682;2023-01-19T14:07:22;28.43;;;10.27;;
71610;SDS011;59459;51.172;6.682;2023-01-19T14:10:04;26.57;;;10.27;;
71610;SDS011;59459;51.172;6.682;2023-01-19T14:12:29;25.48;;;10.45;;
71610;SDS011;59459;51.172;6.682;2023-01-19T14:14:56;28.20;;;11.20;;
71610;SDS011;59459;51.172;6.682;2023-01-19T14:17:28;29.60;;;11.60;;
71610;SDS011;59459;51.172;6.682;2023-01-19T14:19:54;25.83;;;11.77;;
71610;SDS011;59459;51.172;6.682;2023-01-19T14:22:20;26.92;;;10.85;;
71610;SDS011;59459;51.172;6.682;2023-01-19T14:24:45;26.37;;;11.03;;
71610;SDS011;59459;51.172;6.682;2023-01-19T14:27:17;25.60;;;10.00;;
71610;SDS011;59459;51.172;6.682;2023-01-19T14:29:43;25.67;;;10.82;;
71610;SDS011;59459;51.172;6.682;2023-01-19T14:32:12;28.43;;;12.17;;
71610;SDS011;59459;51.172;6.682;2023-01-19T14:34:38;26.40;;;10.52;;
71610;SDS011;59459;51.172;6.682;2023-01-19T14:37:20;30.75;;;11.57;;
71610;SDS011;59459;51.172;6.682;2023-01-19T14:40:31;29.98;;;11.85;;
71610;SDS011;59459;51.172;6.682;2023-01-19T14:42:35;28.83;;;11.85;;
71610;SDS011;59459;51.172;6.682;2023-01-19T14:45:02;28.37;;;12.17;;
71610;SDS011;59459;51.172;6.682;2023-01-19T14:47:34;30.55;;;12.25;;
71610;SDS011;59459;51.172;6.682;2023-01-19T14:50:02;27.95;;;12.50;;
71610;SDS011;59459;51.172;6.682;2023-01-19T14:52:33;30.00;;;12.30;;
71610;SDS011;59459;51.172;6.682;2023-01-19T14:54:59;25.40;;;11.13;;
71610;SDS011;59459;51.172;6.682;2023-01-19T14:57:27;24.07;;;11.50;;
71610;SDS011;59459;51.172;6.682;2023-01-19T14:59:52;29.50;;;11.47;;
71610;SDS011;59459;51.172;6.682;2023-01-19T15:02:17;32.73;;;13.27;;
71610;SDS011;59459;51.172;6.682;2023-01-19T15:04:43;32.08;;;12.95;;
71610;SDS011;59459;51.172;6.682;2023-01-19T15:07:15;26.63;;;12.07;;
71610;SDS011;59459;51.172;6.682;2023-01-19T15:09:41;30.65;;;12.63;;
71610;SDS011;59459;51.172;6.682;2023-01-19T15:12:07;29.00;;;12.17;;
71610;SDS011;59459;51.172;6.682;2023-01-19T15:14:34;32.08;;;12.20;;
71610;SDS011;59459;51.172;6.682;2023-01-19T15:16:59;30.10;;;12.50;;
71610;SDS011;59459;51.172;6.682;2023-01-19T15:19:24;29.97;;;13.53;;
71610;SDS011;59459;51.172;6.682;2023-01-19T15:21:50;35.33;;;13.40;;
71610;SDS011;59459;51.172;6.682;2023-01-19T15:24:15;33.00;;;12.70;;
71610;SDS011;59459;51.172;6.682;2023-01-19T15:26:40;29.00;;;12.13;;
71610;SDS011;59459;51.172;6.682;2023-01-19T15:29:11;29.00;;;11.32;;
71610;SDS011;59459;51.172;6.682;2023-01-19T15:31:38;30.50;;;12.10;;
71610;SDS011;59459;51.172;6.682;2023-01-19T15:34:03;32.00;;;14.70;;